sensor_id;sensor_type;location;lat;lon;timestamp;temperature;humidity
50690;DHT22;54375;48.298;11.238;2023-02-04T00:10:48;4.30;96.10
50690;DHT22;54375;48.298;11.238;2023-02-04T00:30:51;4.40;96.00
50690;DHT22;54375;48.298;11.238;2023-02-04T00:50:53;4.50;96.10
50690;DHT22;54375;48.298;11.238;2023-02-04T01:10:56;4.40;96.40
50690;DHT22;54375;48.298;11.238;2023-02-04T01:30:58;4.50;94.60
50690;DHT22;54375;48.298;11.238;2023-02-04T01:51:04;4.50;94.50
50690;DHT22;54375;48.298;11.238;2023-02-04T02:11:07;4.60;94.50
50690;DHT22;54375;48.298;11.238;2023-02-04T02:31:09;4.70;93.80
50690;DHT22;54375;48.298;11.238;2023-02-04T02:51:11;4.60;93.30
50690;DHT22;54375;48.298;11.238;2023-02-04T03:11:14;4.40;92.40
50690;DHT22;54375;48.298;11.238;2023-02-04T03:31:17;4.10;93.00
50690;DHT22;54375;48.298;11.238;2023-02-04T03:51:21;3.80;92.60
50690;DHT22;54375;48.298;11.238;2023-02-04T04:11:24;3.60;92.00
50690;DHT22;54375;48.298;11.238;2023-02-04T04:31:26;3.50;90.30
50690;DHT22;54375;48.298;11.238;2023-02-04T04:51:28;3.20;90.90
50690;DHT22;54375;48.298;11.238;2023-02-04T05:11:30;2.90;91.50
50690;DHT22;54375;48.298;11.238;2023-02-04T05:31:33;3.30;90.00
50690;DHT22;54375;48.298;11.238;2023-02-04T05:51:35;3.30;91.30
50690;DHT22;54375;48.298;11.238;2023-02-04T06:11:38;3.10;91.90
50690;DHT22;54375;48.298;11.238;2023-02-04T06:31:40;3.00;92.30
50690;DHT22;54375;48.298;11.238;2023-02-04T06:51:43;2.90;92.20
50690;DHT22;54375;48.298;11.238;2023-02-04T07:11:45;2.80;92.20
50690;DHT22;54375;48.298;11.238;2023-02-04T07:31:47;2.80;92.00
50690;DHT22;54375;48.298;11.238;2023-02-04T07:51:50;2.90;91.20
50690;DHT22;54375;48.298;11.238;2023-02-04T08:11:52;3.10;91.10
50690;DHT22;54375;48.298;11.238;2023-02-04T08:31:55;3.20;90.30
50690;DHT22;54375;48.298;11.238;2023-02-04T08:51:58;3.50;90.00
50690;DHT22;54375;48.298;11.238;2023-02-04T09:12:00;3.80;88.20
50690;DHT22;54375;48.298;11.238;2023-02-04T09:32:02;4.10;86.10
50690;DHT22;54375;48.298;11.238;2023-02-04T09:52:08;4.10;84.70
50690;DHT22;54375;48.298;11.238;2023-02-04T10:12:11;4.30;85.40
50690;DHT22;54375;48.298;11.238;2023-02-04T10:32:28;3.40;87.40
50690;DHT22;54375;48.298;11.238;2023-02-04T10:52:34;3.60;86.90
50690;DHT22;54375;48.298;11.238;2023-02-04T11:12:40;3.90;85.00
50690;DHT22;54375;48.298;11.238;2023-02-04T11:32:43;4.00;84.60
50690;DHT22;54375;48.298;11.238;2023-02-04T11:52:45;4.30;81.20
50690;DHT22;54375;48.298;11.238;2023-02-04T12:12:50;4.70;80.10
50690;DHT22;54375;48.298;11.238;2023-02-04T12:32:53;6.30;72.70
50690;DHT22;54375;48.298;11.238;2023-02-04T12:52:56;4.70;78.50
50690;DHT22;54375;48.298;11.238;2023-02-04T13:12:59;4.00;82.00
50690;DHT22;54375;48.298;11.238;2023-02-04T13:33:01;4.20;81.70
50690;DHT22;54375;48.298;11.238;2023-02-04T13:53:03;4.60;77.90
50690;DHT22;54375;48.298;11.238;2023-02-04T14:13:06;4.60;79.00
50690;DHT22;54375;48.298;11.238;2023-02-04T14:33:08;4.90;78.00
50690;DHT22;54375;48.298;11.238;2023-02-04T14:53:11;4.10;77.30
50690;DHT22;54375;48.298;11.238;2023-02-04T15:13:13;4.00;76.70
50690;DHT22;54375;48.298;11.238;2023-02-04T15:33:16;4.00;76.20
50690;DHT22;54375;48.298;11.238;2023-02-04T15:53:18;3.50;77.80
50690;DHT22;54375;48.298;11.238;2023-02-04T16:13:21;3.10;80.20
50690;DHT22;54375;48.298;11.238;2023-02-04T16:33:23;2.70;81.80
50690;DHT22;54375;48.298;11.238;2023-02-04T16:53:26;2.20;83.80
50690;DHT22;54375;48.298;11.238;2023-02-04T17:13:28;1.60;84.80
50690;DHT22;54375;48.298;11.238;2023-02-04T17:33:31;1.00;86.30
50690;DHT22;54375;48.298;11.238;2023-02-04T17:53:34;0.30;87.10
50690;DHT22;54375;48.298;11.238;2023-02-04T18:13:36;-0.30;88.90
50690;DHT22;54375;48.298;11.238;2023-02-04T18:33:38;-0.70;90.60
50690;DHT22;54375;48.298;11.238;2023-02-04T18:53:41;-1.10;91.50
50690;DHT22;54375;48.298;11.238;2023-02-04T19:13:43;-1.50;92.00
50690;DHT22;54375;48.298;11.238;2023-02-04T19:33:47;-1.70;92.90
50690;DHT22;54375;48.298;11.238;2023-02-04T19:53:50;-1.90;93.20
50690;DHT22;54375;48.298;11.238;2023-02-04T20:13:54;-1.70;94.70
50690;DHT22;54375;48.298;11.238;2023-02-04T20:33:58;-1.60;94.10
50690;DHT22;54375;48.298;11.238;2023-02-04T20:54:00;-1.50;94.30
50690;DHT22;54375;48.298;11.238;2023-02-04T21:14:03;-1.50;94.30
50690;DHT22;54375;48.298;11.238;2023-02-04T21:34:05;-1.30;94.70
50690;DHT22;54375;48.298;11.238;2023-02-04T21:54:07;-1.30;94.50
50690;DHT22;54375;48.298;11.238;2023-02-04T22:14:10;-1.30;94.40
50690;DHT22;54375;48.298;11.238;2023-02-04T22:34:12;-1.60;94.40
50690;DHT22;54375;48.298;11.238;2023-02-04T22:54:15;-1.90;94.30
50690;DHT22;54375;48.298;11.238;2023-02-04T23:14:17;-2.20;94.20
50690;DHT22;54375;48.298;11.238;2023-02-04T23:34:20;-2.60;94.30
50690;DHT22;54375;48.298;11.238;2023-02-04T23:54:22;-2.90;94.80
